Time;durP1;ratioP1;P1;durP2;ratioP2;P2;SDS_P1;SDS_P2;PMS_P1;PMS_P2;Temp;Humidity;BMP_temperature;BMP_pressure;BME280_temperature;BME280_humidity;BME280_pressure;Samples;Min_cycle;Max_cycle;Signal;HPM_P1;HPM_P2
2022/09/11 00:00:54;;;;;;;41.27;25.83;;;;;;;;;;4972079;28;20414;-46
2022/09/11 00:03:22;;;;;;;41.33;24.20;;;;;;;;;;4971422;28;20422;-47
2022/09/11 00:05:48;;;;;;;41.50;25.63;;;;;;;;;;4971723;28;20453;-47
2022/09/11 00:08:15;;;;;;;47.53;27.17;;;;;;;;;;4972411;28;20410;-47
2022/09/11 00:10:42;;;;;;;45.70;27.07;;;;;;;;;;4974593;28;20397;-48
2022/09/11 00:13:13;;;;;;;46.93;26.57;;;;;;;;;;4975870;28;20416;-48
2022/09/11 00:15:43;;;;;;;55.37;26.40;;;;;;;;;;4975732;28;20809;-51
2022/09/11 00:18:10;;;;;;;53.23;25.10;;;;;;;;;;4975650;28;20923;-48
2022/09/11 00:20:36;;;;;;;52.83;26.57;;;;;;;;;;4975358;28;20391;-47
2022/09/11 00:23:05;;;;;;;47.30;26.37;;;;;;;;;;4975780;28;20405;-47
2022/09/11 00:25:35;;;;;;;50.20;29.10;;;;;;;;;;4975345;28;20413;-50
2022/09/11 00:28:01;;;;;;;47.63;26.10;;;;;;;;;;4975542;28;20400;-46
2022/09/11 00:30:28;;;;;;;45.77;26.33;;;;;;;;;;4975338;28;20419;-46
2022/09/11 00:32:54;;;;;;;45.17;26.70;;;;;;;;;;4975269;28;20901;-47
2022/09/11 00:35:20;;;;;;;45.63;26.50;;;;;;;;;;4975161;28;20488;-47
2022/09/11 00:37:47;;;;;;;41.50;25.03;;;;;;;;;;4974320;28;20439;-47
2022/09/11 00:40:14;;;;;;;46.37;26.10;;;;;;;;;;4974648;28;20458;-48
2022/09/11 00:42:40;;;;;;;42.73;24.70;;;;;;;;;;4975033;28;20471;-48
2022/09/11 00:45:07;;;;;;;45.80;25.10;;;;;;;;;;4975095;28;20435;-47
2022/09/11 00:47:33;;;;;;;48.30;26.30;;;;;;;;;;4975195;28;20432;-47
2022/09/11 00:50:06;;;;;;;45.83;24.73;;;;;;;;;;4975214;28;20814;-46
2022/09/11 00:52:37;;;;;;;45.57;25.17;;;;;;;;;;4974894;28;20405;-49
2022/09/11 00:55:06;;;;;;;38.37;24.00;;;;;;;;;;4974861;28;20399;-46
2022/09/11 00:57:35;;;;;;;39.30;23.80;;;;;;;;;;4975136;28;20477;-48
2022/09/11 01:00:02;;;;;;;45.27;25.30;;;;;;;;;;4974719;28;20424;-54
2022/09/11 01:02:29;;;;;;;44.97;25.17;;;;;;;;;;4973831;28;20405;-47
2022/09/11 01:04:56;;;;;;;72.27;25.20;;;;;;;;;;4974135;28;20383;-46
2022/09/11 01:07:22;;;;;;;81.97;25.00;;;;;;;;;;4973250;28;20497;-49
2022/09/11 01:09:49;;;;;;;42.30;22.07;;;;;;;;;;4974352;28;20383;-47
2022/09/11 01:12:35;;;;;;;37.20;22.03;;;;;;;;;;4974424;28;20409;-48
2022/09/11 01:15:09;;;;;;;40.30;23.20;;;;;;;;;;4974494;28;20379;-48
2022/09/11 01:17:39;;;;;;;39.97;22.80;;;;;;;;;;4973805;28;20452;-47
2022/09/11 01:20:08;;;;;;;33.77;20.60;;;;;;;;;;4974255;28;20412;-50
2022/09/11 01:22:44;;;;;;;51.40;23.70;;;;;;;;;;4973411;28;20897;-48
2022/09/11 01:25:22;;;;;;;112.27;22.90;;;;;;;;;;4974290;28;20437;-47
2022/09/11 01:27:49;;;;;;;61.37;20.30;;;;;;;;;;4974576;28;20412;-48
2022/09/11 01:30:20;;;;;;;85.90;22.10;;;;;;;;;;4974292;28;20418;-47
2022/09/11 01:32:58;;;;;;;92.03;19.77;;;;;;;;;;4974330;28;20433;-48
2022/09/11 01:35:32;;;;;;;271.83;26.30;;;;;;;;;;4974116;28;20397;-47
2022/09/11 01:38:16;;;;;;;35.67;17.57;;;;;;;;;;4972478;28;20835;-47
2022/09/11 01:40:52;;;;;;;41.47;17.97;;;;;;;;;;4973198;28;20447;-48
2022/09/11 01:43:21;;;;;;;229.20;26.57;;;;;;;;;;4974396;28;20404;-48
2022/09/11 01:45:49;;;;;;;43.90;20.57;;;;;;;;;;4974000;28;20450;-48
2022/09/11 01:48:16;;;;;;;45.67;21.70;;;;;;;;;;4972654;28;20944;-47
2022/09/11 01:50:44;;;;;;;84.90;21.60;;;;;;;;;;4973865;28;20507;-47
2022/09/11 01:53:11;;;;;;;115.13;25.10;;;;;;;;;;4973997;28;20430;-48
2022/09/11 01:55:40;;;;;;;43.30;22.37;;;;;;;;;;4973685;28;20428;-46
2022/09/11 01:58:11;;;;;;;36.40;21.90;;;;;;;;;;4973521;28;20573;-47
2022/09/11 02:00:39;;;;;;;46.97;25.33;;;;;;;;;;4973436;28;20399;-47
2022/09/11 02:03:26;;;;;;;49.80;25.30;;;;;;;;;;4973783;28;20403;-50
2022/09/11 02:05:55;;;;;;;73.77;25.67;;;;;;;;;;4973813;28;20420;-46
2022/09/11 02:08:37;;;;;;;147.73;26.93;;;;;;;;;;4972210;28;20486;-48
2022/09/11 02:11:05;;;;;;;54.67;25.03;;;;;;;;;;4972965;28;20466;-46
2022/09/11 02:13:35;;;;;;;38.47;20.90;;;;;;;;;;4973611;28;20777;-50
2022/09/11 02:16:07;;;;;;;63.20;23.70;;;;;;;;;;4973556;28;20543;-48
2022/09/11 02:18:53;;;;;;;43.83;21.23;;;;;;;;;;4973650;28;20398;-47
2022/09/11 02:21:19;;;;;;;41.10;21.90;;;;;;;;;;4972844;28;20420;-46
2022/09/11 02:23:45;;;;;;;114.50;25.40;;;;;;;;;;4973678;28;20416;-48
2022/09/11 02:26:12;;;;;;;168.90;26.03;;;;;;;;;;4973262;28;20515;-47
2022/09/11 02:28:39;;;;;;;59.67;23.10;;;;;;;;;;4973407;28;20421;-47
2022/09/11 02:31:06;;;;;;;49.23;24.13;;;;;;;;;;4972905;28;20415;-48
2022/09/11 02:33:34;;;;;;;74.37;23.90;;;;;;;;;;4973011;28;20416;-47
2022/09/11 02:36:11;;;;;;;89.67;22.70;;;;;;;;;;4972962;28;20431;-47
2022/09/11 02:38:57;;;;;;;105.47;24.30;;;;;;;;;;4971367;28;20436;-51
2022/09/11 02:41:27;;;;;;;61.87;25.33;;;;;;;;;;4933359;28;20400;-50
2022/09/11 02:44:04;;;;;;;71.87;25.53;;;;;;;;;;4973297;28;20424;-49
2022/09/11 02:46:42;;;;;;;47.83;24.13;;;;;;;;;;4972948;28;20412;-51
2022/09/11 02:49:13;;;;;;;42.23;21.80;;;;;;;;;;4973224;28;20413;-49
2022/09/11 02:51:46;;;;;;;364.17;33.17;;;;;;;;;;4972818;28;20375;-47
2022/09/11 02:54:30;;;;;;;80.07;24.10;;;;;;;;;;4973182;28;20773;-46
2022/09/11 02:57:01;;;;;;;95.27;22.83;;;;;;;;;;4973043;28;20503;-47
2022/09/11 02:59:32;;;;;;;42.63;19.90;;;;;;;;;;4973042;28;20525;-48
2022/09/11 03:02:00;;;;;;;40.87;21.50;;;;;;;;;;4972647;28;20440;-46
2022/09/11 03:04:28;;;;;;;30.40;20.90;;;;;;;;;;4972910;28;20486;-46
2022/09/11 03:06:54;;;;;;;61.60;22.23;;;;;;;;;;4971438;28;20819;-46
2022/09/11 03:09:20;;;;;;;42.97;20.70;;;;;;;;;;4972424;28;20412;-48
2022/09/11 03:11:46;;;;;;;50.20;23.07;;;;;;;;;;4972726;28;20467;-46
2022/09/11 03:14:13;;;;;;;96.50;26.47;;;;;;;;;;4973232;28;20496;-47
2022/09/11 03:16:39;;;;;;;107.57;27.83;;;;;;;;;;4972608;28;20463;-46
2022/09/11 03:19:07;;;;;;;42.17;21.17;;;;;;;;;;4972881;28;20375;-47
2022/09/11 03:21:33;;;;;;;85.07;25.27;;;;;;;;;;4972418;28;20378;-47
2022/09/11 03:24:00;;;;;;;105.20;27.63;;;;;;;;;;4972779;28;20793;-47
2022/09/11 03:26:26;;;;;;;83.47;25.57;;;;;;;;;;4972638;28;20863;-48
2022/09/11 03:28:53;;;;;;;58.87;23.80;;;;;;;;;;4972891;28;20948;-47
2022/09/11 03:31:19;;;;;;;97.37;26.67;;;;;;;;;;4972415;28;20383;-47
2022/09/11 03:33:45;;;;;;;68.80;24.03;;;;;;;;;;4972652;28;20778;-47
2022/09/11 03:36:11;;;;;;;38.80;22.43;;;;;;;;;;4972519;28;20535;-47
2022/09/11 03:38:37;;;;;;;72.67;22.80;;;;;;;;;;4972954;28;20404;-46
2022/09/11 03:41:03;;;;;;;63.07;21.50;;;;;;;;;;4972292;28;20490;-47
2022/09/11 03:43:29;;;;;;;39.23;23.17;;;;;;;;;;4972762;28;20788;-47
2022/09/11 03:45:56;;;;;;;54.10;23.77;;;;;;;;;;4975520;28;20391;-47
2022/09/11 03:48:24;;;;;;;132.23;29.70;;;;;;;;;;4973561;28;20403;-48
2022/09/11 03:50:50;;;;;;;82.47;25.10;;;;;;;;;;4975196;28;20425;-48
2022/09/11 03:53:16;;;;;;;47.97;22.67;;;;;;;;;;4976293;28;20399;-48
2022/09/11 03:55:42;;;;;;;46.37;26.00;;;;;;;;;;4975708;28;20470;-46
2022/09/11 03:58:08;;;;;;;53.93;24.70;;;;;;;;;;4975943;28;21031;-47
2022/09/11 04:00:35;;;;;;;49.83;25.00;;;;;;;;;;4975987;28;20427;-47
2022/09/11 04:03:01;;;;;;;45.87;23.30;;;;;;;;;;4975795;28;20445;-49
2022/09/11 04:05:27;;;;;;;66.43;24.43;;;;;;;;;;4975695;28;20430;-47
2022/09/11 04:07:54;;;;;;;104.37;29.00;;;;;;;;;;4976060;28;20431;-48
2022/09/11 04:10:20;;;;;;;119.83;26.30;;;;;;;;;;4975823;28;20450;-47
2022/09/11 04:12:49;;;;;;;41.40;24.40;;;;;;;;;;4975935;28;20541;-51
2022/09/11 04:15:15;;;;;;;54.00;24.33;;;;;;;;;;4975630;28;20444;-47
2022/09/11 04:17:41;;;;;;;125.30;29.03;;;;;;;;;;4973067;28;20435;-47
2022/09/11 04:20:07;;;;;;;128.57;30.17;;;;;;;;;;4975489;28;20388;-49
2022/09/11 04:22:33;;;;;;;67.23;29.50;;;;;;;;;;4975397;28;20467;-47
2022/09/11 04:25:00;;;;;;;65.67;31.80;;;;;;;;;;4975425;28;20485;-48
2022/09/11 04:27:26;;;;;;;88.20;32.37;;;;;;;;;;4975610;28;20404;-47
2022/09/11 04:29:53;;;;;;;57.93;29.37;;;;;;;;;;4975589;28;20460;-47
2022/09/11 04:32:18;;;;;;;79.20;33.43;;;;;;;;;;4975053;28;20376;-46
2022/09/11 04:34:44;;;;;;;184.97;40.03;;;;;;;;;;4975159;28;20394;-47
2022/09/11 04:37:10;;;;;;;75.20;32.70;;;;;;;;;;4975520;28;20478;-47
2022/09/11 04:39:36;;;;;;;83.50;35.37;;;;;;;;;;4975368;28;20412;-48
2022/09/11 04:42:03;;;;;;;75.50;35.10;;;;;;;;;;4975000;28;20886;-47
2022/09/11 04:44:29;;;;;;;82.93;35.57;;;;;;;;;;4975271;28;20448;-48
2022/09/11 04:46:55;;;;;;;85.17;33.97;;;;;;;;;;4973941;28;20574;-48
2022/09/11 04:49:22;;;;;;;95.37;35.13;;;;;;;;;;4974840;28;20394;-48
2022/09/11 04:51:48;;;;;;;84.43;33.30;;;;;;;;;;4974806;28;20380;-47
2022/09/11 04:54:16;;;;;;;64.17;31.77;;;;;;;;;;4975147;28;20413;-47
2022/09/11 04:56:42;;;;;;;78.30;33.77;;;;;;;;;;4974580;28;20450;-47
2022/09/11 04:59:12;;;;;;;82.43;36.03;;;;;;;;;;4974960;28;20909;-48
2022/09/11 05:01:38;;;;;;;79.33;34.13;;;;;;;;;;4974494;28;20405;-47
2022/09/11 05:04:05;;;;;;;96.07;36.10;;;;;;;;;;4975181;28;20413;-48
2022/09/11 05:06:31;;;;;;;91.30;37.10;;;;;;;;;;4974730;28;20432;-47
2022/09/11 05:09:04;;;;;;;90.33;34.57;;;;;;;;;;4974884;28;20415;-47
2022/09/11 05:11:30;;;;;;;115.20;33.70;;;;;;;;;;4974377;28;20815;-48
2022/09/11 05:13:57;;;;;;;72.50;34.80;;;;;;;;;;4974742;28;20432;-50
2022/09/11 05:16:25;;;;;;;81.13;35.40;;;;;;;;;;4973316;28;20452;-48
2022/09/11 05:18:52;;;;;;;71.00;34.60;;;;;;;;;;4974757;28;20472;-48
2022/09/11 05:21:18;;;;;;;73.07;35.80;;;;;;;;;;4974226;28;20382;-48
2022/09/11 05:23:48;;;;;;;84.67;37.27;;;;;;;;;;4974649;28;20409;-47
2022/09/11 05:26:16;;;;;;;105.67;39.37;;;;;;;;;;4974302;28;20421;-49
2022/09/11 05:28:42;;;;;;;101.90;35.87;;;;;;;;;;4974422;28;20770;-49
2022/09/11 05:31:15;;;;;;;154.77;38.07;;;;;;;;;;4973921;28;20412;-49
2022/09/11 05:33:42;;;;;;;91.90;35.80;;;;;;;;;;4974408;28;20403;-50
2022/09/11 05:36:09;;;;;;;73.37;35.60;;;;;;;;;;4974238;28;20408;-49
2022/09/11 05:38:38;;;;;;;95.13;37.80;;;;;;;;;;4974323;28;20517;-49
2022/09/11 05:41:05;;;;;;;92.70;35.13;;;;;;;;;;4973779;28;20397;-49
2022/09/11 05:43:31;;;;;;;75.90;35.00;;;;;;;;;;4974124;28;20864;-51
2022/09/11 05:45:58;;;;;;;77.83;35.20;;;;;;;;;;4972587;28;20946;-48
2022/09/11 05:48:24;;;;;;;64.87;32.40;;;;;;;;;;4974008;28;20508;-49
2022/09/11 05:50:54;;;;;;;87.67;37.67;;;;;;;;;;4973655;28;20382;-49
2022/09/11 05:53:20;;;;;;;68.73;34.10;;;;;;;;;;4974017;28;20493;-51
2022/09/11 05:55:46;;;;;;;80.70;36.27;;;;;;;;;;4973682;28;20544;-49
2022/09/11 05:58:12;;;;;;;81.10;35.23;;;;;;;;;;4974025;28;20453;-49
2022/09/11 06:00:39;;;;;;;74.33;32.17;;;;;;;;;;4973872;28;20385;-49
2022/09/11 06:03:06;;;;;;;72.13;34.10;;;;;;;;;;4973588;28;20387;-49
2022/09/11 06:05:32;;;;;;;89.77;37.60;;;;;;;;;;4973570;28;20917;-49
2022/09/11 06:08:00;;;;;;;72.53;31.80;;;;;;;;;;4973219;28;20497;-49
2022/09/11 06:10:26;;;;;;;85.97;34.67;;;;;;;;;;4973497;28;20415;-49
2022/09/11 06:12:52;;;;;;;83.97;37.80;;;;;;;;;;4973610;28;20391;-50
2022/09/11 06:15:18;;;;;;;93.93;37.20;;;;;;;;;;4972104;28;20412;-49
2022/09/11 06:17:44;;;;;;;103.30;34.67;;;;;;;;;;4973594;28;20469;-48
2022/09/11 06:20:11;;;;;;;80.30;36.17;;;;;;;;;;4973829;28;20384;-48
2022/09/11 06:22:37;;;;;;;106.57;34.37;;;;;;;;;;4973356;28;20378;-48
2022/09/11 06:25:03;;;;;;;71.97;34.20;;;;;;;;;;4973423;28;20763;-49
2022/09/11 06:27:29;;;;;;;90.17;34.40;;;;;;;;;;4973418;28;20422;-51
2022/09/11 06:29:55;;;;;;;112.50;37.13;;;;;;;;;;4973400;28;20386;-49
2022/09/11 06:32:21;;;;;;;84.17;37.30;;;;;;;;;;4973238;28;20390;-48
2022/09/11 06:34:47;;;;;;;88.97;33.90;;;;;;;;;;4973078;28;20397;-49
2022/09/11 06:37:13;;;;;;;82.47;37.80;;;;;;;;;;4973174;28;20443;-49
2022/09/11 06:39:39;;;;;;;79.27;34.37;;;;;;;;;;4973252;28;20407;-48
2022/09/11 06:42:06;;;;;;;74.13;35.17;;;;;;;;;;4972746;28;20377;-49
2022/09/11 06:44:32;;;;;;;79.10;35.83;;;;;;;;;;4972129;28;20927;-50
2022/09/11 06:46:58;;;;;;;79.83;32.97;;;;;;;;;;4972579;28;20434;-49
2022/09/11 06:49:24;;;;;;;78.87;37.23;;;;;;;;;;4973319;28;20471;-50
2022/09/11 06:51:51;;;;;;;82.40;35.10;;;;;;;;;;4972687;28;20407;-49
2022/09/11 06:54:17;;;;;;;72.40;33.37;;;;;;;;;;4973068;28;20394;-50
2022/09/11 06:56:44;;;;;;;70.53;32.50;;;;;;;;;;4972629;28;20445;-49
2022/09/11 06:59:10;;;;;;;81.57;36.73;;;;;;;;;;4973030;28;20425;-51
2022/09/11 07:01:35;;;;;;;65.83;31.20;;;;;;;;;;4972649;28;20464;-49
2022/09/11 07:04:02;;;;;;;79.27;32.60;;;;;;;;;;4973084;28;20871;-49
2022/09/11 07:06:29;;;;;;;68.90;32.40;;;;;;;;;;4972894;28;20919;-49
2022/09/11 07:09:01;;;;;;;64.83;32.47;;;;;;;;;;4972837;28;20494;-49
2022/09/11 07:11:31;;;;;;;77.80;32.50;;;;;;;;;;4972422;28;20391;-49
2022/09/11 07:13:57;;;;;;;70.43;32.53;;;;;;;;;;4970519;28;20410;-50
2022/09/11 07:16:24;;;;;;;66.80;31.87;;;;;;;;;;4971214;28;20478;-50
2022/09/11 07:18:50;;;;;;;58.00;30.30;;;;;;;;;;4974412;28;20392;-50
2022/09/11 07:21:20;;;;;;;62.40;30.33;;;;;;;;;;4976327;28;20385;-50
2022/09/11 07:23:48;;;;;;;58.03;31.13;;;;;;;;;;4975992;28;20883;-49
2022/09/11 07:26:14;;;;;;;62.93;30.97;;;;;;;;;;4976685;28;20847;-49
2022/09/11 07:28:40;;;;;;;53.80;30.10;;;;;;;;;;4976672;28;20405;-48
2022/09/11 07:31:09;;;;;;;57.90;30.90;;;;;;;;;;4976208;28;20462;-49
2022/09/11 07:33:36;;;;;;;56.43;28.60;;;;;;;;;;4976613;28;20494;-49
2022/09/11 07:36:05;;;;;;;67.47;34.47;;;;;;;;;;4976379;28;20451;-50
2022/09/11 07:38:31;;;;;;;66.50;31.30;;;;;;;;;;4976422;28;20453;-49
2022/09/11 07:40:57;;;;;;;66.67;32.27;;;;;;;;;;4976183;28;20898;-50
2022/09/11 07:43:23;;;;;;;63.37;33.00;;;;;;;;;;4975596;28;20807;-49
2022/09/11 07:45:52;;;;;;;59.03;32.93;;;;;;;;;;4975760;28;20423;-49
2022/09/11 07:48:18;;;;;;;68.37;31.43;;;;;;;;;;4976393;28;20409;-49
2022/09/11 07:50:54;;;;;;;68.40;32.43;;;;;;;;;;4975493;28;20415;-49
2022/09/11 07:53:20;;;;;;;73.27;33.63;;;;;;;;;;4975345;28;20441;-49
2022/09/11 07:55:46;;;;;;;54.47;29.80;;;;;;;;;;4969640;28;20481;-49
2022/09/11 07:58:12;;;;;;;56.27;30.83;;;;;;;;;;4967497;28;20464;-49
2022/09/11 08:00:38;;;;;;;64.77;31.47;;;;;;;;;;4975309;28;20503;-50
2022/09/11 08:03:04;;;;;;;61.03;30.90;;;;;;;;;;4975883;28;20524;-49
2022/09/11 08:05:30;;;;;;;59.57;30.03;;;;;;;;;;4974506;28;20425;-50
2022/09/11 08:07:56;;;;;;;53.53;30.00;;;;;;;;;;4974619;28;20437;-49
2022/09/11 08:10:22;;;;;;;54.07;30.37;;;;;;;;;;4975302;28;20376;-51
2022/09/11 08:12:48;;;;;;;45.13;28.67;;;;;;;;;;4975610;28;20520;-48
2022/09/11 08:15:14;;;;;;;46.30;26.00;;;;;;;;;;4975405;28;20445;-49
2022/09/11 08:17:40;;;;;;;47.43;28.90;;;;;;;;;;4973208;28;20430;-50
2022/09/11 08:20:06;;;;;;;54.70;31.03;;;;;;;;;;4972953;28;20392;-49
2022/09/11 08:22:32;;;;;;;50.27;31.20;;;;;;;;;;4974933;28;20378;-50
2022/09/11 08:24:58;;;;;;;52.47;29.67;;;;;;;;;;4975146;28;20912;-49
2022/09/11 08:27:24;;;;;;;62.67;28.57;;;;;;;;;;4975657;28;21192;-49
2022/09/11 08:29:50;;;;;;;46.30;27.37;;;;;;;;;;4973638;28;20773;-50
2022/09/11 08:32:16;;;;;;;46.47;27.90;;;;;;;;;;4974716;28;20409;-48
2022/09/11 08:34:42;;;;;;;52.10;29.53;;;;;;;;;;4975378;28;20900;-50
2022/09/11 08:37:08;;;;;;;52.93;28.00;;;;;;;;;;4975563;28;20874;-51
2022/09/11 08:39:34;;;;;;;51.77;28.90;;;;;;;;;;4975526;28;20415;-50
2022/09/11 08:42:08;;;;;;;54.43;30.80;;;;;;;;;;4974844;28;20419;-50
2022/09/11 08:44:46;;;;;;;46.37;27.30;;;;;;;;;;4975041;28;20815;-48
2022/09/11 08:47:17;;;;;;;43.60;27.60;;;;;;;;;;4975301;28;20401;-48
2022/09/11 08:49:46;;;;;;;46.70;26.10;;;;;;;;;;4975476;28;20410;-50
2022/09/11 08:52:14;;;;;;;42.20;25.00;;;;;;;;;;4974874;28;20406;-49
2022/09/11 08:54:41;;;;;;;45.67;26.80;;;;;;;;;;4973625;28;20428;-50
2022/09/11 08:57:19;;;;;;;47.07;25.90;;;;;;;;;;4974897;28;20433;-49
2022/09/11 08:59:45;;;;;;;41.70;26.30;;;;;;;;;;4975011;28;20404;-49
2022/09/11 09:02:20;;;;;;;48.93;26.07;;;;;;;;;;4974589;28;20405;-50
2022/09/11 09:04:52;;;;;;;47.47;26.57;;;;;;;;;;4974751;28;20417;-49
2022/09/11 09:07:33;;;;;;;44.57;28.37;;;;;;;;;;4974907;28;20911;-49
2022/09/11 09:10:13;;;;;;;44.67;26.80;;;;;;;;;;4974931;28;20416;-49
2022/09/11 09:12:52;;;;;;;45.97;26.03;;;;;;;;;;4972323;28;20433;-49
2022/09/11 09:15:24;;;;;;;38.77;25.03;;;;;;;;;;4974398;28;20419;-49
2022/09/11 09:17:55;;;;;;;42.00;24.67;;;;;;;;;;4974882;28;20466;-48
2022/09/11 09:20:26;;;;;;;41.27;24.10;;;;;;;;;;4974291;28;20415;-48
2022/09/11 09:23:03;;;;;;;40.57;24.60;;;;;;;;;;4973595;28;20427;-49
2022/09/11 09:25:30;;;;;;;37.73;24.90;;;;;;;;;;4971989;28;20439;-50
2022/09/11 09:28:17;;;;;;;42.23;24.70;;;;;;;;;;4974082;28;20897;-49
2022/09/11 09:30:46;;;;;;;34.67;23.87;;;;;;;;;;4968142;28;20518;-49
2022/09/11 09:33:27;;;;;;;42.87;23.70;;;;;;;;;;4956410;28;20421;-50
2022/09/11 09:35:53;;;;;;;42.00;25.70;;;;;;;;;;4955008;28;20432;-49
2022/09/11 09:38:21;;;;;;;52.43;26.23;;;;;;;;;;4954913;28;20520;-49
2022/09/11 09:41:06;;;;;;;48.57;25.60;;;;;;;;;;4954822;28;20880;-49
2022/09/11 09:43:38;;;;;;;51.83;25.63;;;;;;;;;;4954057;28;20410;-49
2022/09/11 09:46:07;;;;;;;56.67;27.67;;;;;;;;;;4954778;28;20429;-49
2022/09/11 09:48:37;;;;;;;53.30;29.83;;;;;;;;;;4954887;28;20383;-49
2022/09/11 09:51:03;;;;;;;53.10;27.97;;;;;;;;;;4954327;28;21093;-49
2022/09/11 09:53:33;;;;;;;51.03;27.40;;;;;;;;;;4954869;28;20491;-50
2022/09/11 09:56:00;;;;;;;47.23;25.70;;;;;;;;;;4954499;28;20849;-49
2022/09/11 09:58:30;;;;;;;37.70;23.40;;;;;;;;;;4954527;28;20524;-50
2022/09/11 10:00:56;;;;;;;39.80;24.47;;;;;;;;;;4954213;28;20483;-50
2022/09/11 10:03:32;;;;;;;38.03;23.00;;;;;;;;;;5069109;28;20569;-50
2022/09/11 10:05:59;;;;;;;37.37;22.27;;;;;;;;;;5069272;28;20448;-49
2022/09/11 10:08:32;;;;;;;35.60;22.10;;;;;;;;;;5069088;28;20393;-50
2022/09/11 10:11:10;;;;;;;35.20;21.73;;;;;;;;;;5068556;28;20435;-49
2022/09/11 10:13:52;;;;;;;33.00;22.23;;;;;;;;;;5069099;28;20698;-50
2022/09/11 10:16:20;;;;;;;29.53;20.33;;;;;;;;;;5068621;28;20930;-50
2022/09/11 10:18:46;;;;;;;33.60;20.47;;;;;;;;;;5068920;28;20424;-50
2022/09/11 10:21:12;;;;;;;35.13;23.17;;;;;;;;;;5068531;28;20711;-49
2022/09/11 10:23:55;;;;;;;32.63;21.70;;;;;;;;;;5068785;28;20484;-50
2022/09/11 10:26:29;;;;;;;31.50;21.67;;;;;;;;;;5068369;28;20405;-49
2022/09/11 10:28:59;;;;;;;31.40;21.17;;;;;;;;;;5068959;28;20408;-49
2022/09/11 10:31:25;;;;;;;37.00;23.50;;;;;;;;;;5068095;28;20989;-50
2022/09/11 10:33:54;;;;;;;37.13;23.63;;;;;;;;;;5067200;28;20592;-49
2022/09/11 10:36:24;;;;;;;42.57;24.77;;;;;;;;;;5067258;28;20420;-49
2022/09/11 10:38:51;;;;;;;32.20;22.70;;;;;;;;;;5067817;28;20885;-50
2022/09/11 10:41:22;;;;;;;38.40;24.57;;;;;;;;;;5067763;28;20908;-50
2022/09/11 10:44:01;;;;;;;36.10;24.23;;;;;;;;;;5068024;28;20404;-50
2022/09/11 10:46:33;;;;;;;34.87;24.37;;;;;;;;;;5068046;28;20855;-49
2022/09/11 10:49:08;;;;;;;29.77;22.57;;;;;;;;;;5068142;28;20401;-50
2022/09/11 10:51:35;;;;;;;36.90;24.27;;;;;;;;;;5067933;28;20513;-50
2022/09/11 10:54:01;;;;;;;33.03;23.77;;;;;;;;;;5067891;28;20788;-49
2022/09/11 10:56:27;;;;;;;38.57;23.83;;;;;;;;;;5067724;28;20412;-50
2022/09/11 10:58:57;;;;;;;31.17;22.40;;;;;;;;;;5068306;28;20803;-50
2022/09/11 11:01:23;;;;;;;34.33;24.00;;;;;;;;;;5067142;28;21314;-49
2022/09/11 11:03:49;;;;;;;29.37;21.57;;;;;;;;;;5068118;28;20401;-49
2022/09/11 11:06:37;;;;;;;35.50;22.20;;;;;;;;;;5067365;28;20507;-49
2022/09/11 11:09:09;;;;;;;35.80;22.10;;;;;;;;;;5067649;28;20408;-49
2022/09/11 11:11:45;;;;;;;29.00;21.57;;;;;;;;;;5067328;28;20809;-49
2022/09/11 11:14:12;;;;;;;26.70;18.93;;;;;;;;;;5057833;28;20407;-49
2022/09/11 11:16:47;;;;;;;30.17;20.87;;;;;;;;;;5051911;28;20462;-50
2022/09/11 11:19:26;;;;;;;29.00;20.30;;;;;;;;;;5053825;28;20487;-50
2022/09/11 11:22:01;;;;;;;26.93;18.77;;;;;;;;;;5053812;28;20401;-49
2022/09/11 11:24:31;;;;;;;28.10;20.10;;;;;;;;;;5053461;28;21047;-49
2022/09/11 11:27:12;;;;;;;30.33;20.10;;;;;;;;;;5051047;28;20532;-49
2022/09/11 11:30:01;;;;;;;24.70;17.87;;;;;;;;;;5054226;28;20514;-49
2022/09/11 11:32:30;;;;;;;21.60;17.40;;;;;;;;;;5053573;28;20456;-49
2022/09/11 11:35:11;;;;;;;21.73;17.70;;;;;;;;;;5053765;28;20393;-49
2022/09/11 11:37:40;;;;;;;24.97;18.90;;;;;;;;;;5053982;28;20412;-49
2022/09/11 11:40:13;;;;;;;23.07;17.40;;;;;;;;;;5053912;28;20408;-50
2022/09/11 11:42:42;;;;;;;23.30;18.43;;;;;;;;;;5051365;28;20961;-49
2022/09/11 11:45:10;;;;;;;24.27;18.17;;;;;;;;;;5053398;28;20401;-49
2022/09/11 11:47:40;;;;;;;27.00;19.50;;;;;;;;;;5053643;28;20772;-49
2022/09/11 11:50:25;;;;;;;25.80;18.93;;;;;;;;;;5053287;28;20402;-49
2022/09/11 11:53:07;;;;;;;26.37;19.97;;;;;;;;;;5052257;28;20587;-49
2022/09/11 11:55:48;;;;;;;27.73;19.10;;;;;;;;;;5050965;28;20452;-49
2022/09/11 11:58:17;;;;;;;28.87;20.40;;;;;;;;;;5053194;28;20433;-50
2022/09/11 12:00:46;;;;;;;27.43;20.70;;;;;;;;;;5053342;28;20486;-48
2022/09/11 12:03:25;;;;;;;27.47;19.87;;;;;;;;;;5053269;28;20464;-48
2022/09/11 12:05:51;;;;;;;34.20;23.70;;;;;;;;;;5051438;28;20489;-49
2022/09/11 12:08:17;;;;;;;32.40;21.47;;;;;;;;;;5052635;28;20409;-48
2022/09/11 12:10:45;;;;;;;29.40;21.20;;;;;;;;;;5053052;28;20405;-48
2022/09/11 12:13:14;;;;;;;30.87;21.37;;;;;;;;;;5053442;28;20460;-48
2022/09/11 12:15:56;;;;;;;28.67;20.93;;;;;;;;;;5052964;28;20436;-48
2022/09/11 12:18:24;;;;;;;29.83;21.33;;;;;;;;;;5053359;28;20397;-49
2022/09/11 12:20:50;;;;;;;31.63;21.47;;;;;;;;;;5053105;28;20405;-49
2022/09/11 12:23:32;;;;;;;31.83;21.10;;;;;;;;;;5052937;28;20487;-48
2022/09/11 12:26:03;;;;;;;32.77;23.00;;;;;;;;;;5052068;28;20430;-49
2022/09/11 12:28:29;;;;;;;32.07;23.57;;;;;;;;;;5053144;28;20823;-49
2022/09/11 12:30:57;;;;;;;28.80;21.50;;;;;;;;;;5052874;28;20437;-48
2022/09/11 12:33:46;;;;;;;32.80;23.30;;;;;;;;;;5051199;28;20522;-48
2022/09/11 12:36:16;;;;;;;29.53;22.20;;;;;;;;;;5052658;28;20420;-49
2022/09/11 12:38:49;;;;;;;27.43;20.80;;;;;;;;;;5052882;28;20409;-48
2022/09/11 12:41:21;;;;;;;27.13;21.40;;;;;;;;;;5052384;28;20432;-49
2022/09/11 12:43:48;;;;;;;31.00;21.40;;;;;;;;;;5052511;28;20402;-48
2022/09/11 12:46:20;;;;;;;24.57;20.37;;;;;;;;;;5049611;28;20441;-48
2022/09/11 12:48:48;;;;;;;23.97;19.43;;;;;;;;;;5052707;28;20416;-49
2022/09/11 12:51:20;;;;;;;23.47;19.33;;;;;;;;;;5051996;28;20401;-49
2022/09/11 12:53:49;;;;;;;30.00;20.70;;;;;;;;;;5052178;28;20397;-49
2022/09/11 12:56:25;;;;;;;26.73;20.80;;;;;;;;;;5051055;28;20416;-48
2022/09/11 12:58:58;;;;;;;26.03;18.80;;;;;;;;;;5052592;28;20397;-49
2022/09/11 13:01:27;;;;;;;28.53;21.20;;;;;;;;;;5051139;28;20508;-49
2022/09/11 13:04:02;;;;;;;24.40;20.10;;;;;;;;;;5052380;28;20404;-49
2022/09/11 13:06:55;;;;;;;32.13;21.17;;;;;;;;;;5052165;28;20500;-48
2022/09/11 13:09:36;;;;;;;25.60;20.30;;;;;;;;;;5051568;28;20413;-49
2022/09/11 13:12:20;;;;;;;30.67;19.40;;;;;;;;;;5051874;28;20485;-49
2022/09/11 13:14:48;;;;;;;27.00;20.67;;;;;;;;;;5052036;28;20727;-49
2022/09/11 13:17:15;;;;;;;25.13;21.70;;;;;;;;;;5052126;28;20417;-48
2022/09/11 13:19:41;;;;;;;29.10;21.37;;;;;;;;;;5052259;28;20400;-49
2022/09/11 13:22:42;;;;;;;28.50;21.00;;;;;;;;;;5050087;28;20393;-48
2022/09/11 13:25:12;;;;;;;22.50;19.10;;;;;;;;;;5028520;28;20476;-49
2022/09/11 13:27:41;;;;;;;22.90;19.80;;;;;;;;;;5048397;28;20409;-49
2022/09/11 13:30:07;;;;;;;25.97;20.60;;;;;;;;;;5052042;28;20401;-48
2022/09/11 13:32:34;;;;;;;22.70;19.60;;;;;;;;;;5046721;28;20453;-49
2022/09/11 13:35:04;;;;;;;27.00;21.07;;;;;;;;;;5050974;28;20442;-49
2022/09/11 13:37:30;;;;;;;25.30;19.23;;;;;;;;;;5051335;28;20412;-49
2022/09/11 13:39:57;;;;;;;21.13;18.70;;;;;;;;;;5051813;28;20397;-49
2022/09/11 13:42:24;;;;;;;24.33;17.00;;;;;;;;;;5051298;28;20712;-49
2022/09/11 13:44:51;;;;;;;22.30;19.10;;;;;;;;;;5051603;28;20398;-48
2022/09/11 13:47:24;;;;;;;20.80;17.73;;;;;;;;;;5051668;28;20436;-49
2022/09/11 13:49:52;;;;;;;25.60;19.10;;;;;;;;;;5031051;28;20458;-48
2022/09/11 13:52:21;;;;;;;18.97;16.93;;;;;;;;;;5031110;28;20457;-48
2022/09/11 13:54:51;;;;;;;22.57;17.90;;;;;;;;;;5031704;28;20398;-48
2022/09/11 13:57:19;;;;;;;24.67;18.30;;;;;;;;;;5030279;28;20422;-49
2022/09/11 13:59:47;;;;;;;20.57;17.63;;;;;;;;;;5031803;28;20398;-49
2022/09/11 14:02:33;;;;;;;24.80;19.17;;;;;;;;;;5031358;28;20894;-49
2022/09/11 14:05:03;;;;;;;22.70;18.77;;;;;;;;;;5029730;28;20422;-49
2022/09/11 14:07:32;;;;;;;23.00;18.37;;;;;;;;;;5029316;28;20424;-50
2022/09/11 14:09:58;;;;;;;22.20;17.97;;;;;;;;;;5031546;28;20402;-48
2022/09/11 14:12:24;;;;;;;20.53;15.90;;;;;;;;;;5031092;28;20483;-48
2022/09/11 14:14:52;;;;;;;21.03;17.63;;;;;;;;;;5031385;28;20406;-48
2022/09/11 14:17:19;;;;;;;22.77;18.70;;;;;;;;;;5038070;28;20519;-49
2022/09/11 14:19:45;;;;;;;17.73;15.47;;;;;;;;;;5051197;28;20962;-49
2022/09/11 14:22:16;;;;;;;17.33;14.83;;;;;;;;;;5051040;28;20779;-49
2022/09/11 14:24:54;;;;;;;19.50;15.20;;;;;;;;;;5051190;28;20450;-48
2022/09/11 14:27:30;;;;;;;22.07;16.73;;;;;;;;;;5051309;28;20435;-49
2022/09/11 14:29:55;;;;;;;21.07;16.93;;;;;;;;;;5050542;28;20401;-49